Terminal Aerodrome Forecast
Issued by NWS

Home | Current Version | Previous Version | Text Only | Print | Product List | Glossary On
Versions: 1 2 3 4 5 6 7 8 9 10 11 12 13 14 15 16 17 18 19 20
976
FTUS44 KOHX 191735
TAFCKV
TAF
KCKV 191735Z 1918/2018 35010G17KT P6SM BKN040
     FM200000 01005KT P6SM FEW040 SCT250=

USA.gov is the U.S. government's official web portal to all federal, state and local government web resources and services.